createdAt,value
2023-03-10T00:01:32.365Z,12.00
2023-03-10T00:04:01.299Z,11.90
2023-03-10T00:06:32.478Z,11.90
2023-03-10T00:08:59.713Z,11.90
2023-03-10T00:11:26.760Z,11.80
2023-03-10T00:13:53.574Z,11.70
2023-03-10T00:16:26.548Z,11.80
2023-03-10T00:18:54.013Z,11.80
2023-03-10T00:21:24.547Z,11.90
2023-03-10T00:23:52.004Z,12.00
2023-03-10T00:26:20.768Z,12.10
2023-03-10T00:28:48.547Z,12.00
2023-03-10T00:31:18.303Z,12.00
2023-03-10T00:33:45.926Z,12.10
2023-03-10T00:36:15.698Z,12.10
2023-03-10T00:38:44.021Z,12.10
2023-03-10T00:41:13.643Z,12.00
2023-03-10T00:43:40.833Z,12.10
2023-03-10T00:46:08.121Z,12.00
2023-03-10T00:48:35.714Z,11.90
2023-03-10T00:51:03.549Z,12.00
2023-03-10T00:53:30.708Z,12.10
2023-03-10T00:56:25.023Z,12.00
2023-03-10T00:58:54.394Z,11.90
2023-03-10T01:01:24.760Z,11.90
2023-03-10T01:03:53.712Z,12.00
2023-03-10T01:06:22.218Z,12.00
2023-03-10T01:08:49.584Z,11.90
2023-03-10T01:11:22.188Z,11.90
2023-03-10T01:13:50.268Z,11.90
2023-03-10T01:16:17.275Z,11.90
2023-03-10T01:18:44.891Z,11.80
2023-03-10T01:21:22.166Z,11.90
2023-03-10T01:23:49.597Z,11.90
2023-03-10T01:26:18.536Z,11.90
2023-03-10T01:28:46.158Z,11.80
2023-03-10T01:31:13.627Z,11.80
2023-03-10T01:33:41.685Z,11.90
2023-03-10T01:36:10.023Z,11.90
2023-03-10T01:38:38.119Z,11.80
2023-03-10T01:41:05.677Z,11.90
2023-03-10T01:43:35.592Z,11.90
2023-03-10T01:46:02.646Z,11.80
2023-03-10T01:48:34.062Z,11.70
2023-03-10T01:51:01.544Z,11.80
2023-03-10T01:53:29.687Z,11.80
2023-03-10T01:56:00.870Z,11.80
2023-03-10T01:58:34.526Z,11.90
2023-03-10T02:01:01.772Z,11.80
2023-03-10T02:03:34.110Z,11.80
2023-03-10T02:06:05.160Z,11.80
2023-03-10T02:08:37.397Z,11.80
2023-03-10T02:11:04.921Z,11.80
2023-03-10T02:13:32.118Z,11.80
2023-03-10T02:16:01.890Z,11.80
2023-03-10T02:18:30.765Z,11.80
2023-03-10T02:21:16.319Z,11.80
2023-03-10T02:24:01.500Z,11.80
2023-03-10T02:26:42.766Z,11.90
2023-03-10T02:29:18.583Z,11.90
2023-03-10T02:31:46.995Z,11.80
2023-03-10T02:34:16.382Z,11.80
2023-03-10T02:36:48.445Z,11.80
2023-03-10T02:39:29.624Z,11.90
2023-03-10T02:41:57.016Z,11.80
2023-03-10T02:44:25.639Z,11.80
2023-03-10T02:46:52.960Z,11.80
2023-03-10T02:49:25.251Z,11.80
2023-03-10T02:51:52.365Z,11.90
2023-03-10T02:54:19.275Z,12.00
2023-03-10T02:56:46.687Z,12.00
2023-03-10T02:59:13.645Z,11.80
2023-03-10T03:01:40.578Z,11.90
2023-03-10T03:04:07.853Z,11.90
2023-03-10T03:06:35.870Z,11.80
2023-03-10T03:09:02.711Z,11.70
2023-03-10T03:11:29.628Z,11.80
2023-03-10T03:13:56.850Z,11.90
2023-03-10T03:16:24.050Z,11.80
2023-03-10T03:18:51.172Z,11.80
2023-03-10T03:21:18.112Z,11.70
2023-03-10T03:23:46.611Z,11.60
2023-03-10T03:26:19.464Z,11.60
2023-03-10T03:28:47.000Z,11.70
2023-03-10T03:31:16.228Z,11.60
2023-03-10T03:33:43.303Z,11.70
2023-03-10T03:36:10.442Z,11.70
2023-03-10T03:38:37.539Z,11.70
2023-03-10T03:41:05.186Z,11.70
2023-03-10T03:43:32.804Z,11.60
2023-03-10T03:46:00.277Z,11.70
2023-03-10T03:48:27.878Z,11.60
2023-03-10T03:50:54.969Z,11.70
2023-03-10T03:53:21.933Z,11.60
2023-03-10T03:55:50.390Z,11.60
2023-03-10T03:58:17.588Z,11.60
2023-03-10T04:00:44.637Z,11.50
2023-03-10T04:03:11.523Z,11.60
2023-03-10T04:05:39.194Z,11.60
2023-03-10T04:08:06.752Z,11.60
2023-03-10T04:10:33.835Z,11.60
2023-03-10T04:13:01.003Z,11.50
2023-03-10T04:15:28.246Z,11.60
2023-03-10T04:17:55.305Z,11.50
2023-03-10T04:20:22.513Z,11.50
2023-03-10T04:22:49.577Z,11.50
2023-03-10T04:25:16.709Z,11.50
2023-03-10T04:27:43.661Z,11.30
2023-03-10T04:30:13.801Z,11.40
2023-03-10T04:32:40.871Z,11.40
2023-03-10T04:35:08.459Z,11.40
2023-03-10T04:37:35.526Z,11.40
2023-03-10T04:40:08.316Z,11.30
2023-03-10T04:42:36.241Z,11.50
2023-03-10T04:45:03.306Z,11.50
2023-03-10T04:47:30.269Z,11.70
2023-03-10T04:49:57.234Z,11.70
2023-03-10T04:52:24.362Z,11.80
2023-03-10T04:54:51.386Z,11.50
2023-03-10T04:57:18.422Z,11.70
2023-03-10T04:59:45.461Z,11.80
2023-03-10T05:02:12.712Z,11.80
2023-03-10T05:04:39.792Z,11.80
2023-03-10T05:07:06.936Z,11.70
2023-03-10T05:09:37.773Z,11.70
2023-03-10T05:12:05.448Z,11.60
2023-03-10T05:14:32.308Z,11.70
2023-03-10T05:16:59.326Z,11.70
2023-03-10T05:19:26.347Z,11.70
2023-03-10T05:21:53.520Z,11.70
2023-03-10T05:24:20.403Z,11.70
2023-03-10T05:26:47.399Z,11.60
2023-03-10T05:29:14.308Z,11.50
2023-03-10T05:31:42.031Z,11.50
2023-03-10T05:34:09.110Z,11.50
2023-03-10T05:36:36.123Z,11.50
2023-03-10T05:39:05.603Z,11.40
2023-03-10T05:41:33.640Z,11.40
2023-03-10T05:44:00.574Z,11.50
2023-03-10T05:46:28.428Z,11.50
2023-03-10T05:48:56.254Z,11.50
2023-03-10T05:51:23.207Z,11.40
2023-03-10T05:53:50.372Z,11.40
2023-03-10T05:56:19.609Z,11.30
2023-03-10T05:58:47.313Z,11.40
2023-03-10T06:01:14.775Z,11.10
2023-03-10T06:03:41.818Z,11.20
2023-03-10T06:06:08.961Z,11.10
2023-03-10T06:08:36.026Z,11.10
2023-03-10T06:11:04.115Z,11.10
2023-03-10T06:13:31.990Z,11.10
2023-03-10T06:16:04.948Z,11.20
2023-03-10T06:18:32.074Z,11.00
2023-03-10T06:20:59.426Z,10.90
2023-03-10T06:23:27.017Z,10.90
2023-03-10T06:26:03.617Z,10.80
2023-03-10T06:28:33.269Z,10.70
2023-03-10T06:31:02.343Z,10.70
2023-03-10T06:33:30.546Z,10.70
2023-03-10T06:35:58.507Z,10.60
2023-03-10T06:38:27.380Z,10.60
2023-03-10T06:40:55.324Z,10.60
2023-03-10T06:43:22.458Z,10.70
2023-03-10T06:45:50.257Z,10.70
2023-03-10T06:48:17.578Z,10.80
2023-03-10T06:50:48.068Z,10.70
2023-03-10T06:53:17.220Z,10.60
2023-03-10T06:55:44.359Z,10.60
2023-03-10T06:58:12.149Z,10.60
2023-03-10T07:00:39.782Z,10.70
2023-03-10T07:03:07.010Z,10.70
2023-03-10T07:05:34.291Z,10.70
2023-03-10T07:08:01.137Z,10.60
2023-03-10T07:10:28.042Z,10.60
2023-03-10T07:12:58.848Z,10.60
2023-03-10T07:15:27.005Z,10.60
2023-03-10T07:17:56.267Z,10.60
2023-03-10T07:20:24.013Z,10.60
2023-03-10T07:22:50.963Z,10.50
2023-03-10T07:25:17.972Z,10.60
2023-03-10T07:27:44.916Z,10.50
2023-03-10T07:30:12.318Z,10.50
2023-03-10T07:32:39.494Z,10.50
2023-03-10T07:35:07.105Z,10.50
2023-03-10T07:37:37.253Z,10.50
2023-03-10T07:40:04.963Z,10.60
2023-03-10T07:42:32.101Z,10.50
2023-03-10T07:44:59.043Z,10.60
2023-03-10T07:47:25.961Z,10.50
2023-03-10T07:49:52.861Z,10.50
2023-03-10T07:52:20.488Z,10.60
2023-03-10T07:54:47.849Z,10.50
2023-03-10T07:57:16.302Z,10.50
2023-03-10T07:59:43.654Z,10.50
2023-03-10T08:02:15.015Z,10.40
2023-03-10T08:04:42.796Z,10.40
2023-03-10T08:07:09.980Z,10.50
2023-03-10T08:09:37.034Z,10.40
2023-03-10T08:12:04.815Z,10.50
2023-03-10T08:14:32.234Z,10.50
2023-03-10T08:16:59.293Z,10.40
2023-03-10T08:19:27.724Z,10.40
2023-03-10T08:21:56.144Z,10.50
2023-03-10T08:24:23.569Z,10.50
2023-03-10T08:26:50.663Z,10.50
2023-03-10T08:29:18.064Z,10.50
2023-03-10T08:31:45.242Z,10.70
2023-03-10T08:34:13.123Z,10.70
2023-03-10T08:36:40.420Z,10.90
2023-03-10T08:39:08.728Z,10.90
2023-03-10T08:41:49.109Z,10.90
2023-03-10T08:44:18.352Z,10.90
2023-03-10T08:46:47.195Z,10.90
2023-03-10T08:49:15.853Z,10.90
2023-03-10T08:51:43.254Z,11.00
2023-03-10T08:54:12.564Z,11.00
2023-03-10T08:56:39.512Z,10.90
2023-03-10T08:59:06.793Z,11.00
2023-03-10T09:01:36.525Z,11.00
2023-03-10T09:04:05.691Z,11.10
2023-03-10T09:06:33.022Z,11.10
2023-03-10T09:09:00.163Z,11.30
2023-03-10T09:11:29.968Z,11.30
2023-03-10T09:13:57.121Z,11.30
2023-03-10T09:16:24.598Z,11.30
2023-03-10T09:18:51.527Z,11.40
2023-03-10T09:21:19.850Z,11.40
2023-03-10T09:23:50.356Z,11.40
2023-03-10T09:26:17.301Z,11.50
2023-03-10T09:28:44.294Z,11.50
2023-03-10T09:31:19.744Z,11.50
2023-03-10T09:33:48.313Z,11.50
2023-03-10T09:36:16.444Z,11.40
2023-03-10T09:38:43.743Z,11.40
2023-03-10T09:41:42.088Z,11.60
2023-03-10T09:44:17.767Z,11.60
2023-03-10T09:47:20.098Z,11.60
2023-03-10T09:50:10.004Z,11.60
2023-03-10T09:52:47.900Z,11.50
2023-03-10T09:55:42.315Z,11.50
2023-03-10T09:58:45.876Z,11.60
2023-03-10T10:01:18.581Z,11.50
2023-03-10T10:04:10.311Z,11.50
2023-03-10T10:06:40.052Z,11.60
2023-03-10T10:09:42.202Z,11.60
2023-03-10T10:12:16.819Z,11.70
2023-03-10T10:14:55.284Z,11.70
2023-03-10T10:17:56.841Z,11.80
2023-03-10T10:20:35.292Z,11.70
2023-03-10T10:23:02.266Z,11.70
2023-03-10T10:25:33.042Z,11.50
2023-03-10T10:28:02.489Z,11.30
2023-03-10T10:30:36.715Z,11.10
2023-03-10T10:33:14.506Z,11.10
2023-03-10T10:35:46.376Z,11.00
2023-03-10T10:38:15.967Z,10.70
2023-03-10T10:40:57.790Z,10.50
2023-03-10T10:43:24.850Z,10.30
2023-03-10T10:45:58.071Z,10.10
2023-03-10T10:48:45.182Z,10.10
2023-03-10T10:51:29.651Z,10.10
2023-03-10T10:54:19.730Z,9.90
2023-03-10T10:56:57.794Z,9.80
2023-03-10T10:59:43.026Z,9.70
2023-03-10T11:02:34.659Z,9.70
2023-03-10T11:05:21.191Z,9.70
2023-03-10T11:07:48.236Z,9.60
2023-03-10T11:10:17.045Z,9.60
2023-03-10T11:13:13.224Z,9.50
2023-03-10T11:15:46.317Z,9.50
2023-03-10T11:18:18.726Z,9.50
2023-03-10T11:21:10.320Z,9.60
2023-03-10T11:24:17.479Z,9.60
2023-03-10T11:26:54.821Z,9.60
2023-03-10T11:29:27.472Z,9.60
2023-03-10T11:32:22.010Z,9.60
2023-03-10T11:34:56.491Z,9.40
2023-03-10T11:37:24.971Z,9.30
2023-03-10T11:40:07.704Z,9.10
2023-03-10T11:42:44.220Z,9.10
2023-03-10T11:45:24.427Z,9.10
2023-03-10T11:47:58.385Z,8.90
2023-03-10T11:50:41.559Z,8.90
2023-03-10T11:53:34.042Z,8.80
2023-03-10T11:56:02.566Z,8.90
2023-03-10T11:58:45.717Z,8.90
2023-03-10T12:01:18.354Z,9.00
2023-03-10T12:03:56.369Z,8.90
2023-03-10T12:06:47.911Z,8.80
2023-03-10T12:09:35.572Z,8.60
2023-03-10T12:12:04.760Z,8.70
2023-03-10T12:14:33.575Z,8.60
2023-03-10T12:17:02.364Z,8.60
2023-03-10T12:19:29.239Z,8.50
2023-03-10T12:22:21.037Z,8.40
2023-03-10T12:24:48.511Z,8.50
2023-03-10T12:27:15.412Z,8.50
2023-03-10T12:29:43.829Z,8.60
2023-03-10T12:32:40.862Z,8.50
2023-03-10T12:35:46.348Z,8.50
2023-03-10T12:38:39.937Z,8.40
2023-03-10T12:41:07.670Z,8.70
2023-03-10T12:43:47.312Z,8.70
2023-03-10T12:46:23.286Z,8.90
2023-03-10T12:49:02.730Z,9.00
2023-03-10T12:51:36.169Z,8.90
2023-03-10T12:54:16.456Z,9.00
2023-03-10T12:56:44.035Z,8.90
2023-03-10T12:59:27.327Z,9.00
2023-03-10T13:01:56.402Z,9.00
2023-03-10T13:04:25.272Z,8.80
2023-03-10T13:06:56.945Z,8.80
2023-03-10T13:09:35.602Z,8.80
2023-03-10T13:12:26.177Z,8.70
2023-03-10T13:14:57.108Z,8.50
2023-03-10T13:17:32.537Z,8.30
2023-03-10T13:20:05.915Z,8.30
2023-03-10T13:22:33.665Z,8.30
2023-03-10T13:25:04.347Z,8.00
2023-03-10T13:27:35.931Z,7.90
2023-03-10T13:30:22.486Z,7.90
2023-03-10T13:33:02.161Z,7.80
2023-03-10T13:35:36.181Z,7.70
2023-03-10T13:38:04.410Z,7.60
2023-03-10T13:40:31.526Z,7.30
2023-03-10T13:42:58.709Z,7.40
2023-03-10T13:45:33.958Z,7.40
2023-03-10T13:48:04.414Z,7.30
2023-03-10T13:50:32.037Z,7.30
2023-03-10T13:53:00.315Z,7.20
2023-03-10T13:55:28.490Z,7.10
2023-03-10T13:57:56.466Z,7.00
2023-03-10T14:00:25.449Z,7.10
2023-03-10T14:02:53.801Z,7.00
2023-03-10T14:05:42.416Z,6.90
2023-03-10T14:08:27.947Z,6.80
2023-03-10T14:11:15.046Z,6.70
2023-03-10T14:13:45.612Z,6.70
2023-03-10T14:16:12.738Z,6.80
2023-03-10T14:18:42.062Z,6.80
2023-03-10T14:21:34.097Z,6.90
2023-03-10T14:24:05.946Z,6.70
2023-03-10T14:26:33.309Z,6.90
2023-03-10T14:29:02.386Z,7.00
2023-03-10T14:31:29.901Z,7.10
2023-03-10T14:33:57.035Z,7.10
2023-03-10T14:36:25.173Z,7.20
2023-03-10T14:38:52.157Z,7.30
2023-03-10T14:41:24.160Z,7.40
2023-03-10T14:43:52.204Z,7.30
2023-03-10T14:46:19.429Z,7.30
2023-03-10T14:48:46.718Z,7.20
2023-03-10T14:51:32.528Z,6.80
2023-03-10T14:54:01.300Z,6.80
2023-03-10T14:56:28.321Z,6.50
2023-03-10T14:58:56.710Z,6.60
2023-03-10T15:01:24.322Z,6.60
2023-03-10T15:03:51.621Z,6.50
2023-03-10T15:06:20.014Z,6.40
2023-03-10T15:08:47.180Z,6.40
2023-03-10T15:11:17.289Z,6.40
2023-03-10T15:13:46.032Z,6.50
2023-03-10T15:16:14.681Z,6.50
2023-03-10T15:18:41.873Z,6.60
2023-03-10T15:21:09.286Z,6.40
2023-03-10T15:23:36.275Z,6.50
2023-03-10T15:26:09.707Z,6.50
2023-03-10T15:28:37.461Z,6.60
2023-03-10T15:31:05.700Z,6.60
2023-03-10T15:33:33.283Z,6.70
2023-03-10T15:36:00.229Z,6.80
2023-03-10T15:38:27.145Z,7.00
2023-03-10T15:40:54.090Z,7.00
2023-03-10T15:43:21.084Z,6.90
2023-03-10T15:45:50.193Z,6.70
2023-03-10T15:48:17.480Z,6.80
2023-03-10T15:50:47.175Z,6.80
2023-03-10T15:53:14.773Z,6.90
2023-03-10T15:55:42.711Z,6.90
2023-03-10T15:58:13.176Z,6.90
2023-03-10T16:00:40.138Z,6.90
2023-03-10T16:03:07.506Z,6.90
2023-03-10T16:05:35.469Z,7.00
2023-03-10T16:08:06.194Z,6.90
2023-03-10T16:10:38.456Z,7.00
2023-03-10T16:13:06.323Z,7.20
2023-03-10T16:15:38.073Z,7.20
2023-03-10T16:18:05.783Z,7.20
2023-03-10T16:20:33.214Z,7.30
2023-03-10T16:23:00.544Z,7.20
2023-03-10T16:25:27.698Z,7.20
2023-03-10T16:27:54.616Z,7.00
2023-03-10T16:30:22.523Z,7.00
2023-03-10T16:32:50.408Z,6.90
2023-03-10T16:35:18.432Z,7.10
2023-03-10T16:37:45.306Z,7.00
2023-03-10T16:40:12.713Z,6.90
2023-03-10T16:42:43.407Z,6.90
2023-03-10T16:45:11.069Z,6.90
2023-03-10T16:47:38.178Z,6.90
2023-03-10T16:50:05.396Z,6.90
2023-03-10T16:52:38.612Z,7.00
2023-03-10T16:55:08.922Z,7.00
2023-03-10T16:57:38.882Z,7.10
2023-03-10T17:00:07.010Z,7.10
2023-03-10T17:02:33.859Z,7.10
2023-03-10T17:05:02.141Z,7.10
2023-03-10T17:07:29.260Z,6.80
2023-03-10T17:09:56.243Z,6.80
2023-03-10T17:12:23.392Z,6.60
2023-03-10T17:14:50.922Z,6.50
2023-03-10T17:17:18.103Z,6.50
2023-03-10T17:19:44.985Z,6.40
2023-03-10T17:22:11.792Z,6.40
2023-03-10T17:24:38.817Z,6.50
2023-03-10T17:27:07.427Z,6.50
2023-03-10T17:29:35.027Z,6.60
2023-03-10T17:32:02.038Z,6.50
2023-03-10T17:34:29.492Z,6.30
2023-03-10T17:36:56.504Z,6.40
2023-03-10T17:39:24.259Z,6.40
2023-03-10T17:41:51.307Z,6.40
2023-03-10T17:44:18.710Z,6.30
2023-03-10T17:46:47.904Z,6.40
2023-03-10T17:49:15.600Z,6.60
2023-03-10T17:51:44.520Z,6.50
2023-03-10T17:54:13.409Z,6.50
2023-03-10T17:56:40.697Z,6.60
2023-03-10T17:59:07.928Z,6.60
2023-03-10T18:01:34.930Z,6.60
2023-03-10T18:04:02.037Z,6.80
2023-03-10T18:06:32.117Z,6.60
2023-03-10T18:09:01.064Z,6.70
2023-03-10T18:11:28.851Z,6.80
2023-03-10T18:13:55.911Z,6.70
2023-03-10T18:16:28.849Z,6.70
2023-03-10T18:18:56.993Z,6.80
2023-03-10T18:21:25.286Z,6.80
2023-03-10T18:23:53.020Z,6.80
2023-03-10T18:26:23.121Z,6.70
2023-03-10T18:28:50.345Z,6.70
2023-03-10T18:31:23.089Z,6.60
2023-03-10T18:33:51.352Z,6.50
2023-03-10T18:36:19.905Z,6.40
2023-03-10T18:38:48.565Z,6.40
2023-03-10T18:41:19.611Z,6.30
2023-03-10T18:43:46.965Z,6.50
2023-03-10T18:46:14.058Z,6.60
2023-03-10T18:48:41.564Z,6.60
2023-03-10T18:51:10.026Z,6.50
2023-03-10T18:53:37.517Z,6.30
2023-03-10T18:56:05.187Z,6.20
2023-03-10T18:58:33.165Z,6.30
2023-03-10T19:01:00.059Z,6.30
2023-03-10T19:03:31.329Z,6.20
2023-03-10T19:05:58.581Z,6.10
2023-03-10T19:08:27.365Z,6.20
2023-03-10T19:10:56.680Z,6.10
2023-03-10T19:13:24.697Z,6.10
2023-03-10T19:15:51.723Z,6.20
2023-03-10T19:18:18.751Z,6.20
2023-03-10T19:20:46.766Z,6.30
2023-03-10T19:23:14.874Z,6.30
2023-03-10T19:25:42.385Z,6.30
2023-03-10T19:28:09.607Z,6.40
2023-03-10T19:30:36.777Z,6.10
2023-03-10T19:33:04.111Z,6.10
2023-03-10T19:35:31.227Z,6.20
2023-03-10T19:37:58.157Z,6.20
2023-03-10T19:40:25.070Z,6.10
2023-03-10T19:42:52.221Z,6.20
2023-03-10T19:45:19.461Z,6.20
2023-03-10T19:47:47.868Z,6.20
2023-03-10T19:50:18.288Z,6.20
2023-03-10T19:52:47.086Z,6.30
2023-03-10T19:55:19.698Z,6.20
2023-03-10T19:57:48.820Z,6.20
2023-03-10T20:00:18.966Z,6.00
2023-03-10T20:02:46.787Z,5.90
2023-03-10T20:05:15.642Z,5.80
2023-03-10T20:07:46.602Z,6.00
2023-03-10T20:10:15.868Z,6.00
2023-03-10T20:12:43.250Z,5.90
2023-03-10T20:15:11.352Z,5.90
2023-03-10T20:17:38.342Z,5.90
2023-03-10T20:20:10.807Z,5.80
2023-03-10T20:22:40.181Z,5.80
2023-03-10T20:25:09.687Z,5.70
2023-03-10T20:27:37.522Z,5.50
2023-03-10T20:30:07.593Z,5.40
2023-03-10T20:32:35.180Z,5.50
2023-03-10T20:35:04.403Z,5.50
2023-03-10T20:37:31.612Z,5.50
2023-03-10T20:39:58.596Z,5.60
2023-03-10T20:42:25.651Z,5.40
2023-03-10T20:44:52.690Z,5.40
2023-03-10T20:47:19.636Z,5.30
2023-03-10T20:49:47.845Z,5.20
2023-03-10T20:52:14.921Z,5.20
2023-03-10T20:54:42.011Z,5.00
2023-03-10T20:57:09.261Z,5.20
2023-03-10T20:59:37.131Z,5.10
2023-03-10T21:02:05.476Z,5.10
2023-03-10T21:04:33.068Z,5.30
2023-03-10T21:07:00.173Z,5.20
2023-03-10T21:09:27.239Z,5.20
2023-03-10T21:11:54.071Z,5.00
2023-03-10T21:14:20.969Z,5.00
2023-03-10T21:16:48.145Z,4.90
2023-03-10T21:19:15.008Z,5.20
2023-03-10T21:21:41.862Z,5.10
2023-03-10T21:24:08.906Z,5.00
2023-03-10T21:26:36.143Z,5.10
2023-03-10T21:29:06.732Z,5.20
2023-03-10T21:31:33.556Z,5.10
2023-03-10T21:34:00.651Z,5.20
2023-03-10T21:36:27.945Z,5.30
2023-03-10T21:38:55.088Z,5.20
2023-03-10T21:41:25.376Z,5.00
2023-03-10T21:43:57.339Z,5.30
2023-03-10T21:46:25.945Z,5.10
2023-03-10T21:48:53.370Z,4.90
2023-03-10T21:51:23.102Z,4.90
2023-03-10T21:53:51.986Z,4.80
2023-03-10T21:56:20.395Z,4.90
2023-03-10T21:58:48.358Z,4.90
2023-03-10T22:01:18.128Z,4.90
2023-03-10T22:03:46.492Z,4.90
2023-03-10T22:06:14.419Z,4.70
2023-03-10T22:08:42.406Z,4.90
2023-03-10T22:11:10.957Z,4.70
2023-03-10T22:13:39.525Z,4.70
2023-03-10T22:16:11.134Z,4.80
2023-03-10T22:18:39.130Z,5.00
2023-03-10T22:21:06.909Z,4.90
2023-03-10T22:23:34.505Z,4.80
2023-03-10T22:26:02.370Z,4.60
2023-03-10T22:28:30.014Z,4.60
2023-03-10T22:30:58.035Z,4.60
2023-03-10T22:33:25.807Z,4.90
2023-03-10T22:35:53.667Z,4.80
2023-03-10T22:38:21.603Z,4.80
2023-03-10T22:40:49.730Z,4.80
2023-03-10T22:43:17.468Z,4.70
2023-03-10T22:45:45.358Z,4.60
2023-03-10T22:48:13.001Z,4.60
2023-03-10T22:50:44.774Z,4.40
2023-03-10T22:53:23.312Z,4.30
2023-03-10T22:55:52.588Z,4.30
2023-03-10T22:58:19.572Z,4.30
2023-03-10T23:00:47.700Z,4.40
2023-03-10T23:03:15.882Z,4.50
2023-03-10T23:05:45.590Z,4.50
2023-03-10T23:08:13.978Z,4.50
2023-03-10T23:10:43.249Z,4.50
2023-03-10T23:13:16.503Z,4.60
2023-03-10T23:15:44.737Z,4.70
2023-03-10T23:18:12.539Z,4.80
2023-03-10T23:20:49.488Z,4.60
2023-03-10T23:23:18.809Z,4.40
2023-03-10T23:25:48.926Z,4.30
2023-03-10T23:28:17.744Z,4.40
2023-03-10T23:30:46.260Z,4.40
2023-03-10T23:33:16.386Z,4.50
2023-03-10T23:35:43.396Z,4.30
2023-03-10T23:38:10.399Z,4.30
2023-03-10T23:40:38.228Z,4.20
2023-03-10T23:43:08.095Z,4.10
2023-03-10T23:45:37.040Z,4.20
2023-03-10T23:48:07.105Z,4.30
2023-03-10T23:50:36.340Z,4.30
2023-03-10T23:53:05.764Z,4.40
2023-03-10T23:55:36.051Z,4.50
2023-03-10T23:58:04.119Z,4.60
